sensor_id;sensor_type;location;lat;lon;timestamp;P1;durP1;ratioP1;P2;durP2;ratioP2
2476;SDS011;1249;51.270;6.756;2022-10-31T00:02:26;66.43;;;62.27;;
2476;SDS011;1249;51.270;6.756;2022-10-31T00:04:55;72.90;;;69.03;;
2476;SDS011;1249;51.270;6.756;2022-10-31T00:07:26;67.60;;;63.77;;
2476;SDS011;1249;51.270;6.756;2022-10-31T00:09:55;65.30;;;61.73;;
2476;SDS011;1249;51.270;6.756;2022-10-31T00:12:26;78.23;;;72.43;;
2476;SDS011;1249;51.270;6.756;2022-10-31T00:14:59;77.10;;;71.73;;
2476;SDS011;1249;51.270;6.756;2022-10-31T00:17:26;60.93;;;57.27;;
2476;SDS011;1249;51.270;6.756;2022-10-31T00:19:53;61.53;;;58.07;;
2476;SDS011;1249;51.270;6.756;2022-10-31T00:22:20;64.10;;;60.30;;
2476;SDS011;1249;51.270;6.756;2022-10-31T00:24:47;55.37;;;51.90;;
2476;SDS011;1249;51.270;6.756;2022-10-31T00:27:14;91.73;;;86.83;;
2476;SDS011;1249;51.270;6.756;2022-10-31T00:29:43;76.37;;;72.00;;
2476;SDS011;1249;51.270;6.756;2022-10-31T00:32:11;57.57;;;54.03;;
2476;SDS011;1249;51.270;6.756;2022-10-31T00:34:41;57.47;;;54.03;;
2476;SDS011;1249;51.270;6.756;2022-10-31T00:37:09;74.13;;;69.20;;
2476;SDS011;1249;51.270;6.756;2022-10-31T00:39:41;60.03;;;56.33;;
2476;SDS011;1249;51.270;6.756;2022-10-31T00:42:10;55.50;;;51.50;;
2476;SDS011;1249;51.270;6.756;2022-10-31T00:44:39;74.23;;;69.67;;
2476;SDS011;1249;51.270;6.756;2022-10-31T00:47:09;77.37;;;72.40;;
2476;SDS011;1249;51.270;6.756;2022-10-31T00:49:40;82.90;;;77.50;;
2476;SDS011;1249;51.270;6.756;2022-10-31T00:52:10;54.70;;;51.20;;
2476;SDS011;1249;51.270;6.756;2022-10-31T00:54:38;91.67;;;86.57;;
2476;SDS011;1249;51.270;6.756;2022-10-31T00:57:10;77.90;;;73.50;;
2476;SDS011;1249;51.270;6.756;2022-10-31T00:59:40;57.57;;;53.97;;
2476;SDS011;1249;51.270;6.756;2022-10-31T01:02:07;65.53;;;62.43;;
2476;SDS011;1249;51.270;6.756;2022-10-31T01:04:34;88.37;;;83.03;;
2476;SDS011;1249;51.270;6.756;2022-10-31T01:07:09;75.07;;;71.20;;
2476;SDS011;1249;51.270;6.756;2022-10-31T01:09:37;90.17;;;84.67;;
2476;SDS011;1249;51.270;6.756;2022-10-31T01:12:06;71.70;;;67.30;;
2476;SDS011;1249;51.270;6.756;2022-10-31T01:14:35;70.10;;;66.07;;
2476;SDS011;1249;51.270;6.756;2022-10-31T01:17:06;84.33;;;79.57;;
2476;SDS011;1249;51.270;6.756;2022-10-31T01:19:35;60.90;;;57.30;;
2476;SDS011;1249;51.270;6.756;2022-10-31T01:22:10;86.20;;;81.50;;
2476;SDS011;1249;51.270;6.756;2022-10-31T01:24:39;65.27;;;61.20;;
2476;SDS011;1249;51.270;6.756;2022-10-31T01:27:06;58.50;;;54.57;;
2476;SDS011;1249;51.270;6.756;2022-10-31T01:29:33;73.97;;;69.67;;
2476;SDS011;1249;51.270;6.756;2022-10-31T01:32:03;63.57;;;59.70;;
2476;SDS011;1249;51.270;6.756;2022-10-31T01:34:30;77.43;;;73.10;;
2476;SDS011;1249;51.270;6.756;2022-10-31T01:36:57;59.93;;;56.10;;
2476;SDS011;1249;51.270;6.756;2022-10-31T01:39:25;70.80;;;66.60;;
2476;SDS011;1249;51.270;6.756;2022-10-31T01:41:54;72.57;;;68.37;;
2476;SDS011;1249;51.270;6.756;2022-10-31T01:47:27;59.90;;;55.87;;
2476;SDS011;1249;51.270;6.756;2022-10-31T01:50:00;61.97;;;58.27;;
2476;SDS011;1249;51.270;6.756;2022-10-31T01:52:35;55.57;;;51.67;;
2476;SDS011;1249;51.270;6.756;2022-10-31T01:55:09;58.60;;;55.57;;
2476;SDS011;1249;51.270;6.756;2022-10-31T01:57:40;61.83;;;57.90;;
2476;SDS011;1249;51.270;6.756;2022-10-31T02:00:11;74.17;;;69.83;;
2476;SDS011;1249;51.270;6.756;2022-10-31T02:02:38;65.30;;;61.43;;
2476;SDS011;1249;51.270;6.756;2022-10-31T02:05:06;79.37;;;75.17;;
2476;SDS011;1249;51.270;6.756;2022-10-31T02:07:45;59.97;;;55.83;;
2476;SDS011;1249;51.270;6.756;2022-10-31T02:10:22;71.23;;;66.67;;
2476;SDS011;1249;51.270;6.756;2022-10-31T02:12:50;67.33;;;63.40;;
2476;SDS011;1249;51.270;6.756;2022-10-31T02:15:20;58.27;;;54.87;;
2476;SDS011;1249;51.270;6.756;2022-10-31T02:17:56;58.37;;;54.73;;
2476;SDS011;1249;51.270;6.756;2022-10-31T02:20:23;71.60;;;67.47;;
2476;SDS011;1249;51.270;6.756;2022-10-31T02:26:10;58.77;;;54.87;;
2476;SDS011;1249;51.270;6.756;2022-10-31T02:29:10;42.03;;;38.80;;
2476;SDS011;1249;51.270;6.756;2022-10-31T02:32:02;65.80;;;61.77;;
2476;SDS011;1249;51.270;6.756;2022-10-31T02:34:36;43.97;;;40.63;;
2476;SDS011;1249;51.270;6.756;2022-10-31T02:37:13;53.87;;;50.30;;
2476;SDS011;1249;51.270;6.756;2022-10-31T02:39:48;52.33;;;48.63;;
2476;SDS011;1249;51.270;6.756;2022-10-31T02:42:29;58.87;;;55.43;;
2476;SDS011;1249;51.270;6.756;2022-10-31T02:45:05;54.93;;;50.80;;
2476;SDS011;1249;51.270;6.756;2022-10-31T02:47:38;52.87;;;49.57;;
2476;SDS011;1249;51.270;6.756;2022-10-31T02:50:06;66.87;;;62.53;;
2476;SDS011;1249;51.270;6.756;2022-10-31T02:52:38;63.10;;;59.10;;
2476;SDS011;1249;51.270;6.756;2022-10-31T02:55:11;63.60;;;59.53;;
2476;SDS011;1249;51.270;6.756;2022-10-31T02:58:01;52.53;;;49.33;;
2476;SDS011;1249;51.270;6.756;2022-10-31T03:00:31;57.43;;;53.50;;
2476;SDS011;1249;51.270;6.756;2022-10-31T03:03:04;55.30;;;51.83;;
2476;SDS011;1249;51.270;6.756;2022-10-31T03:05:43;56.63;;;52.70;;
2476;SDS011;1249;51.270;6.756;2022-10-31T03:08:27;75.83;;;71.70;;
2476;SDS011;1249;51.270;6.756;2022-10-31T03:11:01;60.53;;;56.73;;
2476;SDS011;1249;51.270;6.756;2022-10-31T03:13:32;61.20;;;56.80;;
2476;SDS011;1249;51.270;6.756;2022-10-31T03:16:07;58.73;;;55.50;;
2476;SDS011;1249;51.270;6.756;2022-10-31T03:18:39;81.87;;;77.33;;
2476;SDS011;1249;51.270;6.756;2022-10-31T03:21:07;75.63;;;71.03;;
2476;SDS011;1249;51.270;6.756;2022-10-31T03:23:39;68.03;;;63.53;;
2476;SDS011;1249;51.270;6.756;2022-10-31T03:26:08;81.27;;;76.90;;
2476;SDS011;1249;51.270;6.756;2022-10-31T03:28:45;60.93;;;57.73;;
2476;SDS011;1249;51.270;6.756;2022-10-31T03:31:24;62.80;;;58.87;;
2476;SDS011;1249;51.270;6.756;2022-10-31T03:33:55;39.87;;;36.80;;
2476;SDS011;1249;51.270;6.756;2022-10-31T03:36:24;43.00;;;40.13;;
2476;SDS011;1249;51.270;6.756;2022-10-31T03:38:54;50.70;;;47.33;;
2476;SDS011;1249;51.270;6.756;2022-10-31T03:41:23;60.13;;;55.53;;
2476;SDS011;1249;51.270;6.756;2022-10-31T03:43:57;54.53;;;50.87;;
2476;SDS011;1249;51.270;6.756;2022-10-31T03:46:27;44.83;;;42.03;;
2476;SDS011;1249;51.270;6.756;2022-10-31T03:48:55;49.73;;;46.80;;
2476;SDS011;1249;51.270;6.756;2022-10-31T03:51:26;58.03;;;53.63;;
2476;SDS011;1249;51.270;6.756;2022-10-31T03:54:01;45.30;;;42.47;;
2476;SDS011;1249;51.270;6.756;2022-10-31T03:56:37;48.27;;;45.10;;
2476;SDS011;1249;51.270;6.756;2022-10-31T03:59:17;42.57;;;39.57;;
2476;SDS011;1249;51.270;6.756;2022-10-31T04:02:04;41.80;;;38.77;;
2476;SDS011;1249;51.270;6.756;2022-10-31T04:04:35;60.50;;;56.30;;
2476;SDS011;1249;51.270;6.756;2022-10-31T04:07:03;72.27;;;67.87;;
2476;SDS011;1249;51.270;6.756;2022-10-31T04:09:33;67.50;;;63.80;;
2476;SDS011;1249;51.270;6.756;2022-10-31T04:12:07;46.47;;;43.00;;
2476;SDS011;1249;51.270;6.756;2022-10-31T04:14:42;60.50;;;56.73;;
2476;SDS011;1249;51.270;6.756;2022-10-31T04:17:16;39.00;;;36.13;;
2476;SDS011;1249;51.270;6.756;2022-10-31T04:19:58;66.27;;;61.83;;
2476;SDS011;1249;51.270;6.756;2022-10-31T04:22:27;46.47;;;43.10;;
2476;SDS011;1249;51.270;6.756;2022-10-31T04:24:58;35.07;;;32.57;;
2476;SDS011;1249;51.270;6.756;2022-10-31T04:27:28;41.17;;;37.40;;
2476;SDS011;1249;51.270;6.756;2022-10-31T04:30:01;58.03;;;54.47;;
2476;SDS011;1249;51.270;6.756;2022-10-31T04:32:36;46.50;;;43.30;;
2476;SDS011;1249;51.270;6.756;2022-10-31T04:35:08;40.60;;;37.57;;
2476;SDS011;1249;51.270;6.756;2022-10-31T04:37:39;49.67;;;45.87;;
2476;SDS011;1249;51.270;6.756;2022-10-31T04:40:11;44.57;;;41.67;;
2476;SDS011;1249;51.270;6.756;2022-10-31T04:42:40;58.00;;;54.57;;
2476;SDS011;1249;51.270;6.756;2022-10-31T04:45:19;49.97;;;46.13;;
2476;SDS011;1249;51.270;6.756;2022-10-31T04:47:54;64.27;;;60.13;;
2476;SDS011;1249;51.270;6.756;2022-10-31T04:50:21;55.90;;;51.97;;
2476;SDS011;1249;51.270;6.756;2022-10-31T04:52:54;49.20;;;46.07;;
2476;SDS011;1249;51.270;6.756;2022-10-31T04:55:29;45.33;;;41.77;;
2476;SDS011;1249;51.270;6.756;2022-10-31T04:58:10;51.03;;;47.37;;
2476;SDS011;1249;51.270;6.756;2022-10-31T05:00:41;47.27;;;43.77;;
2476;SDS011;1249;51.270;6.756;2022-10-31T05:03:11;40.70;;;38.13;;
2476;SDS011;1249;51.270;6.756;2022-10-31T05:05:38;46.07;;;42.97;;
2476;SDS011;1249;51.270;6.756;2022-10-31T05:08:16;52.37;;;49.17;;
2476;SDS011;1249;51.270;6.756;2022-10-31T05:10:46;78.70;;;74.47;;
2476;SDS011;1249;51.270;6.756;2022-10-31T05:13:13;74.10;;;68.90;;
2476;SDS011;1249;51.270;6.756;2022-10-31T05:15:53;54.23;;;50.93;;
2476;SDS011;1249;51.270;6.756;2022-10-31T05:18:20;53.80;;;49.83;;
2476;SDS011;1249;51.270;6.756;2022-10-31T05:20:46;47.57;;;44.30;;
2476;SDS011;1249;51.270;6.756;2022-10-31T05:23:16;54.33;;;50.93;;
2476;SDS011;1249;51.270;6.756;2022-10-31T05:25:44;71.23;;;67.63;;
2476;SDS011;1249;51.270;6.756;2022-10-31T05:28:17;63.00;;;59.17;;
2476;SDS011;1249;51.270;6.756;2022-10-31T05:30:45;53.70;;;50.33;;
2476;SDS011;1249;51.270;6.756;2022-10-31T05:33:15;73.00;;;67.83;;
2476;SDS011;1249;51.270;6.756;2022-10-31T05:35:42;52.67;;;48.83;;
2476;SDS011;1249;51.270;6.756;2022-10-31T05:38:11;47.77;;;44.70;;
2476;SDS011;1249;51.270;6.756;2022-10-31T05:40:43;58.03;;;54.37;;
2476;SDS011;1249;51.270;6.756;2022-10-31T05:43:10;52.40;;;49.57;;
2476;SDS011;1249;51.270;6.756;2022-10-31T05:45:39;44.37;;;41.07;;
2476;SDS011;1249;51.270;6.756;2022-10-31T05:48:11;54.07;;;50.50;;
2476;SDS011;1249;51.270;6.756;2022-10-31T05:50:38;44.97;;;41.80;;
2476;SDS011;1249;51.270;6.756;2022-10-31T05:53:05;58.73;;;54.77;;
2476;SDS011;1249;51.270;6.756;2022-10-31T05:55:34;68.17;;;63.97;;
2476;SDS011;1249;51.270;6.756;2022-10-31T05:58:05;41.27;;;38.67;;
2476;SDS011;1249;51.270;6.756;2022-10-31T06:00:33;53.33;;;50.07;;
2476;SDS011;1249;51.270;6.756;2022-10-31T06:03:00;46.00;;;43.53;;
2476;SDS011;1249;51.270;6.756;2022-10-31T06:05:37;60.87;;;56.90;;
2476;SDS011;1249;51.270;6.756;2022-10-31T06:08:04;58.20;;;54.20;;
2476;SDS011;1249;51.270;6.756;2022-10-31T06:10:34;49.13;;;45.53;;
2476;SDS011;1249;51.270;6.756;2022-10-31T06:13:15;50.90;;;47.93;;
2476;SDS011;1249;51.270;6.756;2022-10-31T06:15:42;48.40;;;45.33;;
2476;SDS011;1249;51.270;6.756;2022-10-31T06:18:30;47.67;;;44.27;;
2476;SDS011;1249;51.270;6.756;2022-10-31T06:20:57;53.67;;;50.43;;
2476;SDS011;1249;51.270;6.756;2022-10-31T06:23:24;47.73;;;44.23;;
2476;SDS011;1249;51.270;6.756;2022-10-31T06:25:51;56.20;;;51.27;;
2476;SDS011;1249;51.270;6.756;2022-10-31T06:28:17;57.93;;;54.53;;
2476;SDS011;1249;51.270;6.756;2022-10-31T06:30:45;44.43;;;41.50;;
2476;SDS011;1249;51.270;6.756;2022-10-31T06:33:12;49.23;;;45.47;;
2476;SDS011;1249;51.270;6.756;2022-10-31T06:35:45;55.10;;;51.17;;
2476;SDS011;1249;51.270;6.756;2022-10-31T06:38:13;47.77;;;43.93;;
2476;SDS011;1249;51.270;6.756;2022-10-31T06:40:41;58.93;;;55.17;;
2476;SDS011;1249;51.270;6.756;2022-10-31T06:43:08;59.17;;;54.97;;
2476;SDS011;1249;51.270;6.756;2022-10-31T06:45:39;48.17;;;44.60;;
2476;SDS011;1249;51.270;6.756;2022-10-31T06:48:08;51.10;;;47.67;;
2476;SDS011;1249;51.270;6.756;2022-10-31T06:50:35;44.70;;;41.17;;
2476;SDS011;1249;51.270;6.756;2022-10-31T06:53:03;55.50;;;52.37;;
2476;SDS011;1249;51.270;6.756;2022-10-31T06:55:30;65.47;;;61.63;;
2476;SDS011;1249;51.270;6.756;2022-10-31T06:57:59;60.57;;;56.60;;
2476;SDS011;1249;51.270;6.756;2022-10-31T07:00:29;58.10;;;54.63;;
2476;SDS011;1249;51.270;6.756;2022-10-31T07:02:56;76.23;;;71.57;;
2476;SDS011;1249;51.270;6.756;2022-10-31T07:05:25;51.27;;;47.70;;
2476;SDS011;1249;51.270;6.756;2022-10-31T07:07:53;47.47;;;44.53;;
2476;SDS011;1249;51.270;6.756;2022-10-31T07:10:30;44.10;;;40.80;;
2476;SDS011;1249;51.270;6.756;2022-10-31T07:13:15;58.73;;;54.80;;
2476;SDS011;1249;51.270;6.756;2022-10-31T07:15:59;51.63;;;47.77;;
2476;SDS011;1249;51.270;6.756;2022-10-31T07:18:27;62.60;;;58.73;;
2476;SDS011;1249;51.270;6.756;2022-10-31T07:24:51;49.10;;;45.67;;
2476;SDS011;1249;51.270;6.756;2022-10-31T07:27:18;49.53;;;46.37;;
2476;SDS011;1249;51.270;6.756;2022-10-31T07:29:45;55.60;;;52.20;;
2476;SDS011;1249;51.270;6.756;2022-10-31T07:32:11;71.10;;;66.87;;
2476;SDS011;1249;51.270;6.756;2022-10-31T07:34:38;81.47;;;76.33;;
2476;SDS011;1249;51.270;6.756;2022-10-31T07:37:05;81.17;;;76.10;;
2476;SDS011;1249;51.270;6.756;2022-10-31T07:39:32;78.53;;;73.63;;
2476;SDS011;1249;51.270;6.756;2022-10-31T07:42:00;81.73;;;76.00;;
2476;SDS011;1249;51.270;6.756;2022-10-31T07:44:26;68.50;;;64.00;;
2476;SDS011;1249;51.270;6.756;2022-10-31T07:46:53;112.87;;;106.13;;
2476;SDS011;1249;51.270;6.756;2022-10-31T07:49:20;82.03;;;77.23;;
2476;SDS011;1249;51.270;6.756;2022-10-31T07:51:47;63.77;;;59.60;;
2476;SDS011;1249;51.270;6.756;2022-10-31T07:54:14;107.73;;;101.77;;
2476;SDS011;1249;51.270;6.756;2022-10-31T07:56:41;89.60;;;84.80;;
2476;SDS011;1249;51.270;6.756;2022-10-31T07:59:09;84.53;;;79.60;;
2476;SDS011;1249;51.270;6.756;2022-10-31T08:01:36;89.67;;;84.57;;
2476;SDS011;1249;51.270;6.756;2022-10-31T08:04:02;85.30;;;80.43;;
2476;SDS011;1249;51.270;6.756;2022-10-31T08:06:29;117.27;;;110.27;;
2476;SDS011;1249;51.270;6.756;2022-10-31T08:08:56;65.97;;;62.60;;
2476;SDS011;1249;51.270;6.756;2022-10-31T08:11:23;78.00;;;73.07;;
2476;SDS011;1249;51.270;6.756;2022-10-31T08:13:49;107.90;;;100.77;;
2476;SDS011;1249;51.270;6.756;2022-10-31T08:16:17;105.70;;;99.27;;
2476;SDS011;1249;51.270;6.756;2022-10-31T08:18:44;119.67;;;113.33;;
2476;SDS011;1249;51.270;6.756;2022-10-31T08:21:11;110.77;;;104.60;;
2476;SDS011;1249;51.270;6.756;2022-10-31T08:23:37;93.73;;;88.40;;
2476;SDS011;1249;51.270;6.756;2022-10-31T08:26:04;119.67;;;113.23;;
2476;SDS011;1249;51.270;6.756;2022-10-31T08:28:31;103.10;;;96.77;;
2476;SDS011;1249;51.270;6.756;2022-10-31T08:30:58;91.37;;;85.80;;
2476;SDS011;1249;51.270;6.756;2022-10-31T08:33:26;114.87;;;107.57;;
2476;SDS011;1249;51.270;6.756;2022-10-31T08:35:53;96.07;;;90.60;;
2476;SDS011;1249;51.270;6.756;2022-10-31T08:38:19;95.20;;;89.40;;
2476;SDS011;1249;51.270;6.756;2022-10-31T08:40:47;104.80;;;98.13;;
2476;SDS011;1249;51.270;6.756;2022-10-31T08:43:16;125.83;;;118.20;;
2476;SDS011;1249;51.270;6.756;2022-10-31T08:45:44;109.23;;;102.63;;
2476;SDS011;1249;51.270;6.756;2022-10-31T08:48:15;114.93;;;108.07;;
2476;SDS011;1249;51.270;6.756;2022-10-31T08:50:44;105.77;;;99.67;;
2476;SDS011;1249;51.270;6.756;2022-10-31T08:53:11;98.00;;;92.70;;
2476;SDS011;1249;51.270;6.756;2022-10-31T08:55:40;135.90;;;127.97;;
2476;SDS011;1249;51.270;6.756;2022-10-31T08:58:09;98.93;;;93.23;;
2476;SDS011;1249;51.270;6.756;2022-10-31T09:00:37;106.93;;;100.57;;
2476;SDS011;1249;51.270;6.756;2022-10-31T09:03:05;93.40;;;88.93;;
2476;SDS011;1249;51.270;6.756;2022-10-31T09:05:33;97.60;;;91.97;;
2476;SDS011;1249;51.270;6.756;2022-10-31T09:08:01;98.83;;;93.07;;
2476;SDS011;1249;51.270;6.756;2022-10-31T09:10:30;120.93;;;114.83;;
2476;SDS011;1249;51.270;6.756;2022-10-31T09:12:58;103.03;;;95.00;;
2476;SDS011;1249;51.270;6.756;2022-10-31T09:15:26;119.93;;;113.50;;
2476;SDS011;1249;51.270;6.756;2022-10-31T09:17:53;129.13;;;122.30;;
2476;SDS011;1249;51.270;6.756;2022-10-31T09:20:20;99.80;;;93.67;;
2476;SDS011;1249;51.270;6.756;2022-10-31T09:22:47;100.90;;;95.40;;
2476;SDS011;1249;51.270;6.756;2022-10-31T09:25:15;113.37;;;107.17;;
2476;SDS011;1249;51.270;6.756;2022-10-31T09:27:42;107.13;;;101.23;;
2476;SDS011;1249;51.270;6.756;2022-10-31T09:30:09;122.67;;;115.27;;
2476;SDS011;1249;51.270;6.756;2022-10-31T09:32:36;113.70;;;106.57;;
2476;SDS011;1249;51.270;6.756;2022-10-31T09:35:03;122.53;;;115.73;;
2476;SDS011;1249;51.270;6.756;2022-10-31T09:37:30;123.30;;;116.47;;
2476;SDS011;1249;51.270;6.756;2022-10-31T09:39:57;113.87;;;107.03;;
2476;SDS011;1249;51.270;6.756;2022-10-31T09:42:28;118.03;;;111.60;;
2476;SDS011;1249;51.270;6.756;2022-10-31T09:45:09;117.93;;;111.33;;
2476;SDS011;1249;51.270;6.756;2022-10-31T09:47:46;111.23;;;104.83;;
2476;SDS011;1249;51.270;6.756;2022-10-31T09:50:24;121.07;;;114.47;;
2476;SDS011;1249;51.270;6.756;2022-10-31T09:52:54;126.87;;;120.03;;
2476;SDS011;1249;51.270;6.756;2022-10-31T09:55:27;103.87;;;98.20;;
2476;SDS011;1249;51.270;6.756;2022-10-31T09:58:02;108.50;;;102.13;;
2476;SDS011;1249;51.270;6.756;2022-10-31T10:00:30;94.43;;;89.20;;
2476;SDS011;1249;51.270;6.756;2022-10-31T10:02:59;108.77;;;102.97;;
2476;SDS011;1249;51.270;6.756;2022-10-31T10:05:34;137.43;;;129.30;;
2476;SDS011;1249;51.270;6.756;2022-10-31T10:08:07;111.53;;;104.67;;
2476;SDS011;1249;51.270;6.756;2022-10-31T10:10:40;141.40;;;133.73;;
2476;SDS011;1249;51.270;6.756;2022-10-31T10:13:28;117.60;;;111.67;;
2476;SDS011;1249;51.270;6.756;2022-10-31T10:16:08;134.67;;;126.63;;
2476;SDS011;1249;51.270;6.756;2022-10-31T10:18:51;142.20;;;124.13;;
2476;SDS011;1249;51.270;6.756;2022-10-31T10:21:29;101.13;;;95.43;;
2476;SDS011;1249;51.270;6.756;2022-10-31T10:24:09;128.63;;;121.33;;
2476;SDS011;1249;51.270;6.756;2022-10-31T10:26:46;126.30;;;119.90;;
2476;SDS011;1249;51.270;6.756;2022-10-31T10:29:27;111.93;;;105.90;;
2476;SDS011;1249;51.270;6.756;2022-10-31T10:32:01;107.13;;;101.07;;
2476;SDS011;1249;51.270;6.756;2022-10-31T10:34:36;146.73;;;138.47;;
2476;SDS011;1249;51.270;6.756;2022-10-31T10:37:08;94.13;;;89.13;;
2476;SDS011;1249;51.270;6.756;2022-10-31T10:39:46;134.27;;;126.83;;
2476;SDS011;1249;51.270;6.756;2022-10-31T10:42:16;102.27;;;95.60;;
2476;SDS011;1249;51.270;6.756;2022-10-31T10:45:06;122.73;;;115.33;;
2476;SDS011;1249;51.270;6.756;2022-10-31T10:47:59;129.03;;;121.97;;
2476;SDS011;1249;51.270;6.756;2022-10-31T10:50:34;80.20;;;75.20;;
2476;SDS011;1249;51.270;6.756;2022-10-31T10:53:05;103.53;;;96.87;;
2476;SDS011;1249;51.270;6.756;2022-10-31T10:55:47;116.07;;;109.67;;
2476;SDS011;1249;51.270;6.756;2022-10-31T10:58:22;105.27;;;99.77;;
2476;SDS011;1249;51.270;6.756;2022-10-31T11:00:50;111.20;;;104.87;;
2476;SDS011;1249;51.270;6.756;2022-10-31T11:03:20;101.77;;;95.77;;
2476;SDS011;1249;51.270;6.756;2022-10-31T11:05:48;104.20;;;98.20;;
2476;SDS011;1249;51.270;6.756;2022-10-31T11:08:23;100.17;;;94.60;;
2476;SDS011;1249;51.270;6.756;2022-10-31T11:10:55;111.00;;;104.47;;
2476;SDS011;1249;51.270;6.756;2022-10-31T11:13:24;103.70;;;97.60;;
2476;SDS011;1249;51.270;6.756;2022-10-31T11:15:58;93.03;;;86.93;;
2476;SDS011;1249;51.270;6.756;2022-10-31T11:18:27;111.47;;;104.87;;
2476;SDS011;1249;51.270;6.756;2022-10-31T11:20:56;109.33;;;103.23;;
2476;SDS011;1249;51.270;6.756;2022-10-31T11:23:25;112.93;;;106.20;;
2476;SDS011;1249;51.270;6.756;2022-10-31T11:25:55;116.50;;;109.87;;
2476;SDS011;1249;51.270;6.756;2022-10-31T11:28:23;107.03;;;101.10;;
2476;SDS011;1249;51.270;6.756;2022-10-31T11:30:51;116.00;;;109.30;;
2476;SDS011;1249;51.270;6.756;2022-10-31T11:33:24;110.97;;;104.00;;
2476;SDS011;1249;51.270;6.756;2022-10-31T11:35:54;131.77;;;124.97;;
2476;SDS011;1249;51.270;6.756;2022-10-31T11:38:22;110.93;;;104.27;;
2476;SDS011;1249;51.270;6.756;2022-10-31T11:40:56;94.50;;;88.67;;
2476;SDS011;1249;51.270;6.756;2022-10-31T11:43:26;115.20;;;107.70;;
2476;SDS011;1249;51.270;6.756;2022-10-31T11:45:53;109.43;;;103.43;;
2476;SDS011;1249;51.270;6.756;2022-10-31T11:48:20;132.50;;;124.73;;
2476;SDS011;1249;51.270;6.756;2022-10-31T11:50:51;94.60;;;89.00;;
2476;SDS011;1249;51.270;6.756;2022-10-31T11:53:22;125.00;;;117.63;;
2476;SDS011;1249;51.270;6.756;2022-10-31T11:56:00;125.33;;;118.23;;
2476;SDS011;1249;51.270;6.756;2022-10-31T11:58:30;125.33;;;118.90;;
2476;SDS011;1249;51.270;6.756;2022-10-31T12:00:58;113.47;;;107.17;;
2476;SDS011;1249;51.270;6.756;2022-10-31T12:03:40;102.03;;;96.23;;
2476;SDS011;1249;51.270;6.756;2022-10-31T12:06:15;90.00;;;85.17;;
2476;SDS011;1249;51.270;6.756;2022-10-31T12:08:46;132.67;;;124.57;;
2476;SDS011;1249;51.270;6.756;2022-10-31T12:11:22;125.53;;;118.70;;
2476;SDS011;1249;51.270;6.756;2022-10-31T12:14:01;129.27;;;122.67;;
2476;SDS011;1249;51.270;6.756;2022-10-31T12:16:37;120.27;;;114.23;;
2476;SDS011;1249;51.270;6.756;2022-10-31T12:19:12;119.63;;;113.03;;
2476;SDS011;1249;51.270;6.756;2022-10-31T12:21:50;132.30;;;124.80;;
2476;SDS011;1249;51.270;6.756;2022-10-31T12:24:31;125.00;;;116.90;;
2476;SDS011;1249;51.270;6.756;2022-10-31T12:27:08;109.27;;;104.10;;
2476;SDS011;1249;51.270;6.756;2022-10-31T12:29:47;95.97;;;90.43;;
2476;SDS011;1249;51.270;6.756;2022-10-31T12:32:29;108.90;;;103.60;;
2476;SDS011;1249;51.270;6.756;2022-10-31T12:37:59;94.47;;;88.00;;
2476;SDS011;1249;51.270;6.756;2022-10-31T12:40:41;125.07;;;118.23;;
2476;SDS011;1249;51.270;6.756;2022-10-31T12:43:23;114.43;;;107.67;;
2476;SDS011;1249;51.270;6.756;2022-10-31T12:46:00;106.50;;;100.33;;
2476;SDS011;1249;51.270;6.756;2022-10-31T12:51:37;99.47;;;94.13;;
2476;SDS011;1249;51.270;6.756;2022-10-31T12:57:16;105.03;;;98.77;;
2476;SDS011;1249;51.270;6.756;2022-10-31T12:59:50;79.73;;;75.10;;
2476;SDS011;1249;51.270;6.756;2022-10-31T13:02:20;133.60;;;126.30;;
2476;SDS011;1249;51.270;6.756;2022-10-31T13:04:51;109.30;;;102.53;;
2476;SDS011;1249;51.270;6.756;2022-10-31T13:07:24;136.93;;;128.63;;
2476;SDS011;1249;51.270;6.756;2022-10-31T13:09:56;136.90;;;129.67;;
2476;SDS011;1249;51.270;6.756;2022-10-31T13:12:27;113.83;;;107.23;;
2476;SDS011;1249;51.270;6.756;2022-10-31T13:14:56;108.93;;;102.37;;
2476;SDS011;1249;51.270;6.756;2022-10-31T13:17:27;115.80;;;108.70;;
2476;SDS011;1249;51.270;6.756;2022-10-31T13:20:02;114.30;;;107.83;;
2476;SDS011;1249;51.270;6.756;2022-10-31T13:22:45;134.20;;;126.20;;
2476;SDS011;1249;51.270;6.756;2022-10-31T13:25:16;117.23;;;110.70;;
2476;SDS011;1249;51.270;6.756;2022-10-31T13:27:47;131.03;;;123.37;;
2476;SDS011;1249;51.270;6.756;2022-10-31T13:30:18;110.67;;;104.03;;
2476;SDS011;1249;51.270;6.756;2022-10-31T13:32:48;107.10;;;100.70;;
2476;SDS011;1249;51.270;6.756;2022-10-31T13:35:20;103.80;;;97.20;;
2476;SDS011;1249;51.270;6.756;2022-10-31T13:37:56;99.00;;;92.90;;
2476;SDS011;1249;51.270;6.756;2022-10-31T13:40:35;134.50;;;127.00;;
2476;SDS011;1249;51.270;6.756;2022-10-31T13:43:10;101.80;;;95.77;;
2476;SDS011;1249;51.270;6.756;2022-10-31T13:45:49;117.57;;;110.77;;
2476;SDS011;1249;51.270;6.756;2022-10-31T13:48:19;126.00;;;118.40;;
2476;SDS011;1249;51.270;6.756;2022-10-31T13:51:00;107.80;;;101.87;;
2476;SDS011;1249;51.270;6.756;2022-10-31T13:53:36;129.40;;;121.77;;
2476;SDS011;1249;51.270;6.756;2022-10-31T13:56:11;125.40;;;118.17;;
2476;SDS011;1249;51.270;6.756;2022-10-31T13:58:42;103.00;;;96.57;;
2476;SDS011;1249;51.270;6.756;2022-10-31T14:01:23;109.00;;;103.53;;
2476;SDS011;1249;51.270;6.756;2022-10-31T14:03:55;110.10;;;104.17;;
2476;SDS011;1249;51.270;6.756;2022-10-31T14:06:34;120.33;;;113.30;;
2476;SDS011;1249;51.270;6.756;2022-10-31T14:09:04;104.20;;;98.60;;
2476;SDS011;1249;51.270;6.756;2022-10-31T14:11:30;121.10;;;114.30;;
2476;SDS011;1249;51.270;6.756;2022-10-31T14:13:58;128.10;;;120.83;;
2476;SDS011;1249;51.270;6.756;2022-10-31T14:16:26;118.57;;;112.50;;
2476;SDS011;1249;51.270;6.756;2022-10-31T14:18:57;101.77;;;95.87;;
2476;SDS011;1249;51.270;6.756;2022-10-31T14:21:27;108.57;;;102.70;;
2476;SDS011;1249;51.270;6.756;2022-10-31T14:23:55;124.57;;;117.20;;
2476;SDS011;1249;51.270;6.756;2022-10-31T14:26:31;111.73;;;105.20;;
2476;SDS011;1249;51.270;6.756;2022-10-31T14:29:02;123.90;;;116.67;;
2476;SDS011;1249;51.270;6.756;2022-10-31T14:31:44;106.30;;;99.93;;
2476;SDS011;1249;51.270;6.756;2022-10-31T14:34:20;107.60;;;100.87;;
2476;SDS011;1249;51.270;6.756;2022-10-31T14:36:54;135.67;;;128.40;;
2476;SDS011;1249;51.270;6.756;2022-10-31T14:39:29;115.37;;;108.13;;
2476;SDS011;1249;51.270;6.756;2022-10-31T14:42:08;110.20;;;104.30;;
2476;SDS011;1249;51.270;6.756;2022-10-31T14:44:47;91.23;;;85.87;;
2476;SDS011;1249;51.270;6.756;2022-10-31T14:47:29;99.10;;;92.77;;
2476;SDS011;1249;51.270;6.756;2022-10-31T14:50:24;114.67;;;108.43;;
2476;SDS011;1249;51.270;6.756;2022-10-31T14:53:02;91.93;;;87.13;;
2476;SDS011;1249;51.270;6.756;2022-10-31T14:55:32;94.63;;;89.60;;
2476;SDS011;1249;51.270;6.756;2022-10-31T14:58:01;121.30;;;114.10;;
2476;SDS011;1249;51.270;6.756;2022-10-31T15:00:30;105.13;;;99.60;;
2476;SDS011;1249;51.270;6.756;2022-10-31T15:03:03;87.70;;;82.10;;
2476;SDS011;1249;51.270;6.756;2022-10-31T15:05:34;97.00;;;91.20;;
2476;SDS011;1249;51.270;6.756;2022-10-31T15:08:12;86.60;;;82.10;;
2476;SDS011;1249;51.270;6.756;2022-10-31T15:10:44;94.13;;;88.87;;
2476;SDS011;1249;51.270;6.756;2022-10-31T15:13:17;81.97;;;76.40;;
2476;SDS011;1249;51.270;6.756;2022-10-31T15:15:46;93.80;;;88.17;;
2476;SDS011;1249;51.270;6.756;2022-10-31T15:18:14;100.63;;;94.77;;
2476;SDS011;1249;51.270;6.756;2022-10-31T15:20:44;95.80;;;90.20;;
2476;SDS011;1249;51.270;6.756;2022-10-31T15:23:17;96.20;;;90.87;;
2476;SDS011;1249;51.270;6.756;2022-10-31T15:25:48;96.43;;;90.90;;